createdAt,value
2023-02-25T00:01:14.439Z,50.29
2023-02-25T00:03:41.499Z,50.04
2023-02-25T00:06:13.359Z,50.39
2023-02-25T00:08:43.178Z,50.89
2023-02-25T00:11:10.063Z,50.76
2023-02-25T00:13:38.680Z,50.35
2023-02-25T00:16:06.739Z,51.18
2023-02-25T00:18:33.744Z,50.47
2023-02-25T00:21:00.316Z,50.72
2023-02-25T00:23:26.866Z,50.62
2023-02-25T00:26:05.753Z,51.52
2023-02-25T00:28:33.919Z,50.61
2023-02-25T00:31:05.431Z,51.27
2023-02-25T00:33:31.980Z,51.63
2023-02-25T00:35:58.470Z,51.27
2023-02-25T00:38:24.991Z,51.60
2023-02-25T00:40:51.462Z,51.35
2023-02-25T00:43:17.975Z,50.84
2023-02-25T00:45:44.485Z,52.04
2023-02-25T00:48:11.027Z,51.16
2023-02-25T00:50:39.555Z,51.97
2023-02-25T00:53:06.125Z,52.16
2023-02-25T00:55:33.366Z,52.05
2023-02-25T00:58:02.829Z,51.20
2023-02-25T01:00:30.482Z,51.72
2023-02-25T01:02:57.939Z,52.25
2023-02-25T01:05:25.396Z,51.65
2023-02-25T01:07:52.055Z,52.37
2023-02-25T01:10:19.009Z,52.21
2023-02-25T01:12:45.794Z,52.22
2023-02-25T01:15:13.147Z,52.21
2023-02-25T01:17:39.714Z,51.80
2023-02-25T01:20:11.345Z,51.95
2023-02-25T01:22:41.572Z,51.65
2023-02-25T01:25:13.098Z,51.61
2023-02-25T01:27:40.016Z,51.75
2023-02-25T01:30:08.117Z,52.19
2023-02-25T01:32:34.881Z,52.49
2023-02-25T01:35:02.192Z,52.13
2023-02-25T01:37:28.832Z,52.61
2023-02-25T01:39:55.488Z,52.18
2023-02-25T01:42:22.266Z,52.94
2023-02-25T01:45:24.391Z,52.25
2023-02-25T01:48:05.131Z,52.51
2023-02-25T01:50:37.434Z,52.01
2023-02-25T01:53:05.866Z,52.91
2023-02-25T01:55:33.079Z,52.86
2023-02-25T01:58:00.753Z,51.83
2023-02-25T02:00:30.541Z,52.84
2023-02-25T02:02:58.053Z,52.53
2023-02-25T02:05:37.567Z,52.94
2023-02-25T02:08:05.583Z,52.99
2023-02-25T02:10:32.103Z,52.63
2023-02-25T02:12:58.719Z,53.09
2023-02-25T02:15:25.266Z,53.52
2023-02-25T02:18:03.154Z,53.36
2023-02-25T02:21:02.808Z,52.99
2023-02-25T02:23:54.107Z,53.71
2023-02-25T02:26:49.721Z,52.71
2023-02-25T02:29:32.130Z,53.33
2023-02-25T02:32:15.330Z,53.09
2023-02-25T02:34:47.134Z,53.76
2023-02-25T02:37:13.598Z,52.73
2023-02-25T02:39:44.918Z,53.57
2023-02-25T02:42:16.910Z,53.48
2023-02-25T02:44:55.457Z,53.49
2023-02-25T02:47:28.224Z,53.16
2023-02-25T02:50:02.744Z,53.01
2023-02-25T02:52:33.061Z,52.76
2023-02-25T02:55:06.906Z,53.93
2023-02-25T02:57:36.802Z,53.92
2023-02-25T03:00:17.749Z,53.48
2023-02-25T03:03:38.699Z,53.01
2023-02-25T03:06:10.391Z,52.93
2023-02-25T03:09:18.577Z,53.01
2023-02-25T03:11:45.482Z,53.90
2023-02-25T03:14:13.203Z,53.83
2023-02-25T03:16:46.725Z,53.72
2023-02-25T03:19:18.512Z,54.25
2023-02-25T03:22:27.802Z,53.74
2023-02-25T03:24:58.079Z,54.07
2023-02-25T03:27:34.322Z,53.48
2023-02-25T03:30:16.764Z,53.71
2023-02-25T03:32:47.761Z,54.09
2023-02-25T03:35:17.436Z,53.43
2023-02-25T03:37:48.947Z,53.49
2023-02-25T03:40:18.203Z,53.55
2023-02-25T03:42:52.394Z,53.43
2023-02-25T03:45:21.459Z,54.04
2023-02-25T03:47:48.296Z,53.39
2023-02-25T03:50:21.717Z,53.39
2023-02-25T03:52:48.436Z,53.63
2023-02-25T03:55:17.150Z,54.01
2023-02-25T03:57:45.950Z,54.42
2023-02-25T04:00:23.089Z,53.56
2023-02-25T04:02:50.415Z,53.43
2023-02-25T04:05:19.030Z,53.23
2023-02-25T04:07:45.982Z,54.21
2023-02-25T04:10:14.968Z,54.00
2023-02-25T04:12:41.975Z,54.00
2023-02-25T04:15:09.326Z,53.18
2023-02-25T04:17:37.216Z,53.46
2023-02-25T04:20:05.124Z,53.56
2023-02-25T04:22:32.172Z,53.66
2023-02-25T04:24:58.826Z,54.25
2023-02-25T04:27:26.368Z,54.14
2023-02-25T04:29:52.878Z,54.48
2023-02-25T04:32:19.431Z,54.31
2023-02-25T04:34:46.054Z,53.49
2023-02-25T04:37:12.573Z,53.38
2023-02-25T04:39:39.081Z,54.25
2023-02-25T04:42:05.661Z,53.42
2023-02-25T04:44:32.160Z,53.71
2023-02-25T04:46:58.671Z,53.57
2023-02-25T04:49:25.228Z,53.59
2023-02-25T04:51:52.043Z,53.25
2023-02-25T04:54:19.799Z,54.22
2023-02-25T04:56:46.740Z,53.91
2023-02-25T04:59:14.041Z,54.50
2023-02-25T05:01:41.013Z,54.08
2023-02-25T05:04:07.721Z,53.91
2023-02-25T05:06:34.772Z,54.52
2023-02-25T05:09:01.340Z,53.36
2023-02-25T05:11:29.067Z,53.52
2023-02-25T05:13:55.945Z,54.23
2023-02-25T05:16:23.851Z,53.71
2023-02-25T05:18:50.737Z,53.45
2023-02-25T05:21:20.156Z,53.70
2023-02-25T05:23:48.462Z,54.30
2023-02-25T05:26:17.140Z,53.44
2023-02-25T05:28:43.877Z,53.56
2023-02-25T05:31:12.213Z,54.18
2023-02-25T05:33:40.083Z,53.48
2023-02-25T05:36:09.036Z,54.05
2023-02-25T05:38:36.794Z,53.55
2023-02-25T05:41:05.949Z,54.37
2023-02-25T05:43:32.862Z,54.35
2023-02-25T05:46:01.547Z,54.26
2023-02-25T05:48:28.013Z,54.37
2023-02-25T05:51:01.696Z,53.46
2023-02-25T05:53:28.272Z,53.47
2023-02-25T05:55:55.711Z,54.40
2023-02-25T05:58:22.994Z,53.55
2023-02-25T06:00:49.703Z,53.58
2023-02-25T06:03:16.791Z,54.55
2023-02-25T06:05:44.073Z,53.82
2023-02-25T06:08:11.712Z,53.42
2023-02-25T06:10:41.415Z,53.62
2023-02-25T06:13:09.444Z,54.40
2023-02-25T06:15:40.618Z,54.35
2023-02-25T06:18:07.756Z,54.22
2023-02-25T06:20:35.295Z,54.50
2023-02-25T06:23:02.818Z,54.67
2023-02-25T06:25:29.941Z,54.27
2023-02-25T06:27:57.612Z,54.27
2023-02-25T06:30:24.772Z,54.09
2023-02-25T06:32:51.822Z,53.62
2023-02-25T06:35:20.964Z,53.93
2023-02-25T06:37:47.582Z,54.24
2023-02-25T06:40:15.222Z,53.41
2023-02-25T06:42:42.075Z,54.13
2023-02-25T06:45:09.044Z,54.28
2023-02-25T06:47:35.556Z,54.42
2023-02-25T06:50:02.742Z,54.46
2023-02-25T06:52:29.476Z,54.48
2023-02-25T06:54:56.053Z,53.46
2023-02-25T06:57:22.656Z,54.39
2023-02-25T06:59:49.365Z,54.49
2023-02-25T07:02:16.306Z,54.42
2023-02-25T07:04:44.037Z,53.61
2023-02-25T07:07:10.917Z,53.73
2023-02-25T07:09:37.434Z,53.83
2023-02-25T07:12:04.259Z,54.65
2023-02-25T07:14:30.863Z,54.89
2023-02-25T07:16:57.402Z,54.95
2023-02-25T07:19:23.905Z,54.70
2023-02-25T07:21:50.419Z,54.71
2023-02-25T07:24:17.485Z,53.79
2023-02-25T07:26:44.027Z,54.84
2023-02-25T07:29:10.755Z,53.95
2023-02-25T07:31:37.376Z,54.12
2023-02-25T07:34:04.436Z,54.35
2023-02-25T07:36:37.487Z,54.65
2023-02-25T07:39:06.759Z,54.48
2023-02-25T07:41:33.334Z,53.86
2023-02-25T07:43:59.979Z,53.84
2023-02-25T07:46:27.267Z,53.69
2023-02-25T07:48:53.833Z,54.90
2023-02-25T07:51:22.995Z,53.70
2023-02-25T07:53:51.089Z,53.73
2023-02-25T07:56:19.394Z,54.17
2023-02-25T07:58:46.199Z,53.52
2023-02-25T08:01:26.618Z,54.27
2023-02-25T08:03:55.516Z,53.97
2023-02-25T08:06:22.351Z,54.79
2023-02-25T08:08:51.953Z,54.23
2023-02-25T08:11:20.304Z,55.08
2023-02-25T08:13:47.325Z,54.87
2023-02-25T08:16:16.865Z,55.37
2023-02-25T08:18:43.660Z,54.29
2023-02-25T08:21:11.930Z,55.16
2023-02-25T08:23:38.849Z,55.20
2023-02-25T08:26:06.417Z,54.03
2023-02-25T08:28:36.955Z,55.27
2023-02-25T08:31:04.039Z,55.23
2023-02-25T08:33:30.958Z,54.54
2023-02-25T08:36:12.782Z,55.30
2023-02-25T08:38:39.805Z,54.28
2023-02-25T08:41:07.749Z,54.19
2023-02-25T08:43:35.431Z,54.61
2023-02-25T08:46:02.211Z,53.97
2023-02-25T08:48:29.116Z,54.04
2023-02-25T08:50:55.697Z,54.95
2023-02-25T08:53:23.386Z,54.86
2023-02-25T08:55:51.339Z,55.26
2023-02-25T08:58:17.941Z,54.59
2023-02-25T09:00:44.501Z,54.05
2023-02-25T09:03:11.121Z,54.91
2023-02-25T09:05:38.080Z,53.77
2023-02-25T09:08:04.970Z,54.98
2023-02-25T09:10:48.352Z,54.56
2023-02-25T09:15:43.853Z,55.00
2023-02-25T09:18:11.678Z,54.22
2023-02-25T09:20:38.315Z,54.02
2023-02-25T09:23:04.967Z,54.11
2023-02-25T09:25:31.760Z,54.87
2023-02-25T09:27:58.305Z,53.75
2023-02-25T09:30:24.816Z,53.61
2023-02-25T09:32:51.844Z,54.23
2023-02-25T09:35:18.509Z,54.76
2023-02-25T09:37:44.990Z,54.71
2023-02-25T09:40:17.933Z,54.63
2023-02-25T09:43:07.618Z,54.31
2023-02-25T09:45:36.295Z,53.30
2023-02-25T09:48:19.776Z,53.40
2023-02-25T09:50:53.644Z,53.35
2023-02-25T09:53:39.347Z,53.38
2023-02-25T09:56:08.182Z,53.90
2023-02-25T09:58:44.609Z,54.50
2023-02-25T10:01:11.081Z,53.97
2023-02-25T10:04:05.636Z,54.53
2023-02-25T10:07:01.492Z,55.11
2023-02-25T10:10:01.882Z,55.07
2023-02-25T10:12:40.472Z,55.86
2023-02-25T10:15:53.342Z,56.29
2023-02-25T10:18:38.147Z,55.79
2023-02-25T10:21:17.379Z,55.88
2023-02-25T10:24:13.962Z,55.52
2023-02-25T10:26:46.572Z,56.34
2023-02-25T10:29:28.444Z,56.71
2023-02-25T10:32:00.004Z,57.26
2023-02-25T10:34:31.097Z,56.61
2023-02-25T10:37:00.209Z,56.68
2023-02-25T10:39:28.620Z,57.31
2023-02-25T10:41:55.328Z,57.71
2023-02-25T10:44:22.014Z,57.28
2023-02-25T10:47:00.568Z,57.98
2023-02-25T10:49:30.122Z,57.68
2023-02-25T10:52:03.379Z,57.76
2023-02-25T10:54:47.736Z,57.33
2023-02-25T10:57:16.801Z,57.33
2023-02-25T10:59:45.234Z,56.93
2023-02-25T11:02:31.469Z,57.57
2023-02-25T11:04:58.355Z,57.13
2023-02-25T11:07:33.101Z,57.09
2023-02-25T11:10:19.515Z,56.85
2023-02-25T11:12:48.312Z,56.74
2023-02-25T11:15:44.865Z,55.76
2023-02-25T11:18:29.322Z,56.50
2023-02-25T11:21:07.234Z,55.65
2023-02-25T11:23:35.825Z,56.15
2023-02-25T11:26:03.138Z,56.94
2023-02-25T11:28:34.455Z,56.51
2023-02-25T11:31:10.283Z,56.80
2023-02-25T11:33:40.515Z,56.66
2023-02-25T11:36:07.919Z,57.00
2023-02-25T11:38:40.069Z,56.91
2023-02-25T11:41:17.684Z,56.60
2023-02-25T11:43:44.515Z,56.73
2023-02-25T11:46:32.692Z,56.94
2023-02-25T11:49:20.641Z,56.73
2023-02-25T11:52:35.914Z,56.57
2023-02-25T11:55:22.412Z,56.52
2023-02-25T11:57:48.857Z,56.71
2023-02-25T12:01:06.473Z,56.85
2023-02-25T12:04:04.084Z,55.94
2023-02-25T12:06:52.598Z,56.24
2023-02-25T12:09:34.000Z,55.82
2023-02-25T12:12:20.207Z,56.02
2023-02-25T12:14:58.711Z,55.74
2023-02-25T12:18:00.897Z,55.67
2023-02-25T12:20:50.142Z,55.13
2023-02-25T12:23:43.659Z,54.79
2023-02-25T12:26:20.690Z,55.11
2023-02-25T12:28:50.970Z,54.91
2023-02-25T12:31:47.260Z,54.09
2023-02-25T12:34:32.072Z,53.77
2023-02-25T12:37:48.179Z,53.60
2023-02-25T12:40:27.412Z,53.98
2023-02-25T12:43:09.271Z,53.86
2023-02-25T12:45:38.822Z,54.17
2023-02-25T12:48:35.130Z,53.52
2023-02-25T12:51:14.779Z,53.85
2023-02-25T12:53:57.717Z,53.71
2023-02-25T12:56:36.580Z,53.40
2023-02-25T12:59:30.725Z,53.72
2023-02-25T13:02:35.344Z,53.23
2023-02-25T13:05:20.596Z,53.62
2023-02-25T13:08:11.542Z,53.23
2023-02-25T13:10:41.273Z,52.76
2023-02-25T13:13:19.997Z,52.57
2023-02-25T13:16:15.292Z,52.57
2023-02-25T13:19:00.263Z,52.68
2023-02-25T13:21:44.291Z,51.93
2023-02-25T13:24:34.048Z,51.97
2023-02-25T13:27:27.699Z,51.55
2023-02-25T13:30:12.128Z,52.15
2023-02-25T13:32:56.656Z,51.75
2023-02-25T13:35:42.578Z,51.57
2023-02-25T13:38:36.936Z,51.18
2023-02-25T13:41:11.292Z,50.65
2023-02-25T13:43:56.638Z,51.11
2023-02-25T13:46:42.680Z,50.59
2023-02-25T13:49:49.963Z,50.90
2023-02-25T13:52:44.181Z,50.75
2023-02-25T13:55:24.032Z,50.82
2023-02-25T13:58:23.680Z,50.63
2023-02-25T14:01:27.175Z,50.26
2023-02-25T14:04:12.259Z,50.54
2023-02-25T14:07:13.310Z,50.26
2023-02-25T14:10:12.497Z,50.83
2023-02-25T14:13:11.834Z,50.21
2023-02-25T14:15:56.624Z,50.29
2023-02-25T14:18:44.814Z,49.71
2023-02-25T14:21:56.819Z,49.70
2023-02-25T14:24:42.193Z,49.54
2023-02-25T14:27:31.258Z,48.72
2023-02-25T14:30:18.684Z,48.40
2023-02-25T14:32:57.460Z,48.86
2023-02-25T14:35:59.235Z,48.17
2023-02-25T14:39:04.302Z,48.02
2023-02-25T14:41:54.064Z,48.54
2023-02-25T14:44:35.515Z,48.29
2023-02-25T14:47:16.410Z,48.36
2023-02-25T14:49:54.802Z,47.99
2023-02-25T14:52:41.523Z,48.53
2023-02-25T14:55:08.040Z,48.56
2023-02-25T14:57:44.117Z,48.34
2023-02-25T15:00:24.718Z,48.42
2023-02-25T15:03:09.516Z,47.16
2023-02-25T15:06:07.142Z,47.73
2023-02-25T15:08:58.546Z,47.99
2023-02-25T15:11:37.550Z,47.42
2023-02-25T15:14:25.767Z,47.76
2023-02-25T15:17:20.328Z,47.57
2023-02-25T15:20:22.336Z,47.37
2023-02-25T15:23:07.405Z,47.96
2023-02-25T15:25:38.824Z,47.89
2023-02-25T15:28:31.292Z,48.29
2023-02-25T15:31:01.049Z,47.72
2023-02-25T15:33:33.955Z,48.07
2023-02-25T15:36:19.560Z,48.63
2023-02-25T15:38:47.331Z,48.20
2023-02-25T15:41:29.383Z,48.49
2023-02-25T15:44:00.313Z,48.19
2023-02-25T15:46:35.986Z,48.90
2023-02-25T15:49:27.693Z,48.57
2023-02-25T15:51:59.764Z,49.21
2023-02-25T15:54:32.036Z,48.56
2023-02-25T15:57:01.230Z,48.61
2023-02-25T15:59:44.160Z,48.55
2023-02-25T16:02:34.703Z,48.46
2023-02-25T16:05:09.975Z,48.66
2023-02-25T16:07:40.186Z,47.99
2023-02-25T16:10:23.897Z,48.28
2023-02-25T16:12:53.914Z,47.74
2023-02-25T16:15:38.376Z,47.79
2023-02-25T16:18:22.031Z,47.44
2023-02-25T16:20:52.875Z,47.84
2023-02-25T16:23:19.830Z,47.70
2023-02-25T16:25:46.305Z,47.46
2023-02-25T16:28:40.580Z,46.84
2023-02-25T16:31:16.117Z,46.60
2023-02-25T16:33:53.571Z,47.11
2023-02-25T16:36:44.197Z,47.32
2023-02-25T16:39:26.308Z,47.05
2023-02-25T16:41:53.014Z,47.37
2023-02-25T16:44:32.947Z,47.27
2023-02-25T16:46:59.481Z,47.80
2023-02-25T16:49:36.841Z,47.49
2023-02-25T16:52:04.571Z,47.82
2023-02-25T16:54:38.093Z,47.55
2023-02-25T16:57:09.657Z,47.64
2023-02-25T16:59:38.494Z,47.61
2023-02-25T17:02:17.161Z,47.76
2023-02-25T17:04:49.230Z,48.14
2023-02-25T17:07:25.189Z,48.07
2023-02-25T17:09:56.180Z,48.32
2023-02-25T17:12:43.644Z,47.95
2023-02-25T17:15:29.103Z,48.04
2023-02-25T17:18:05.882Z,48.38
2023-02-25T17:20:32.946Z,48.25
2023-02-25T17:23:05.491Z,48.04
2023-02-25T17:25:38.838Z,48.75
2023-02-25T17:28:07.633Z,48.50
2023-02-25T17:30:37.156Z,48.74
2023-02-25T17:33:04.918Z,48.82
2023-02-25T17:35:32.840Z,48.96
2023-02-25T17:37:59.602Z,48.77
2023-02-25T17:40:28.573Z,48.94
2023-02-25T17:43:44.171Z,48.60
2023-02-25T17:46:15.241Z,48.65
2023-02-25T17:48:45.695Z,48.82
2023-02-25T17:51:13.668Z,49.13
2023-02-25T17:53:51.239Z,49.02
2023-02-25T17:56:25.485Z,48.76
2023-02-25T17:58:57.862Z,49.01
2023-02-25T18:01:28.775Z,48.93
2023-02-25T18:03:55.779Z,48.61
2023-02-25T18:06:44.637Z,49.02
2023-02-25T18:09:35.922Z,48.87
2023-02-25T18:12:05.815Z,48.91
2023-02-25T18:14:37.067Z,48.89
2023-02-25T18:17:13.474Z,49.07
2023-02-25T18:19:44.406Z,49.24
2023-02-25T18:22:36.946Z,49.33
2023-02-25T18:25:08.144Z,49.21
2023-02-25T18:27:37.639Z,49.01
2023-02-25T18:30:19.345Z,49.21
2023-02-25T18:32:46.975Z,49.28
2023-02-25T18:35:14.220Z,49.19
2023-02-25T18:37:43.336Z,49.26
2023-02-25T18:40:40.747Z,49.34
2023-02-25T18:43:07.647Z,49.07
2023-02-25T18:45:34.661Z,49.13
2023-02-25T18:48:01.754Z,49.12
2023-02-25T18:50:33.621Z,49.28
2023-02-25T18:53:00.879Z,49.51
2023-02-25T18:55:32.866Z,49.51
2023-02-25T18:58:01.111Z,49.42
2023-02-25T19:00:27.785Z,49.13
2023-02-25T19:02:58.008Z,49.45
2023-02-25T19:05:25.608Z,49.47
2023-02-25T19:07:52.627Z,49.48
2023-02-25T19:10:25.280Z,49.57
2023-02-25T19:12:59.029Z,49.35
2023-02-25T19:15:25.489Z,49.34
2023-02-25T19:17:52.033Z,49.38
2023-02-25T19:20:20.530Z,49.14
2023-02-25T19:22:49.464Z,49.43
2023-02-25T19:25:29.010Z,49.53
2023-02-25T19:27:56.900Z,49.77
2023-02-25T19:30:25.977Z,49.48
2023-02-25T19:32:53.001Z,49.34
2023-02-25T19:35:19.740Z,49.54
2023-02-25T19:37:46.313Z,49.69
2023-02-25T19:40:15.400Z,49.78
2023-02-25T19:42:43.710Z,49.48
2023-02-25T19:45:16.762Z,49.55
2023-02-25T19:47:43.678Z,49.46
2023-02-25T19:50:11.627Z,49.60
2023-02-25T19:52:38.961Z,49.60
2023-02-25T19:55:06.555Z,49.36
2023-02-25T19:57:33.592Z,49.25
2023-02-25T20:00:00.355Z,49.66
2023-02-25T20:02:26.870Z,50.00
2023-02-25T20:04:53.402Z,49.38
2023-02-25T20:07:19.942Z,49.20
2023-02-25T20:09:46.588Z,49.51
2023-02-25T20:12:14.061Z,49.82
2023-02-25T20:14:40.626Z,49.86
2023-02-25T20:17:07.279Z,49.88
2023-02-25T20:19:34.485Z,49.54
2023-02-25T20:22:02.874Z,49.57
2023-02-25T20:24:30.518Z,49.42
2023-02-25T20:26:57.092Z,49.29
2023-02-25T20:29:24.032Z,49.54
2023-02-25T20:31:50.724Z,49.44
2023-02-25T20:34:21.307Z,48.71
2023-02-25T20:36:56.775Z,49.23
2023-02-25T20:39:38.471Z,48.96
2023-02-25T20:42:05.761Z,48.47
2023-02-25T20:44:32.773Z,48.23
2023-02-25T20:46:59.548Z,48.32
2023-02-25T20:49:26.338Z,47.73
2023-02-25T20:51:53.278Z,48.07
2023-02-25T20:54:20.250Z,47.68
2023-02-25T20:56:48.366Z,47.39
2023-02-25T20:59:16.036Z,47.63
2023-02-25T21:01:42.847Z,47.81
2023-02-25T21:04:10.300Z,47.67
2023-02-25T21:06:38.204Z,47.42
2023-02-25T21:09:06.712Z,47.09
2023-02-25T21:11:33.740Z,46.96
2023-02-25T21:14:00.281Z,46.78
2023-02-25T21:16:27.165Z,46.68
2023-02-25T21:18:54.110Z,46.84
2023-02-25T21:21:21.754Z,46.81
2023-02-25T21:23:49.303Z,46.46
2023-02-25T21:26:16.156Z,47.01
2023-02-25T21:28:42.907Z,47.07
2023-02-25T21:31:12.349Z,47.09
2023-02-25T21:33:40.455Z,46.35
2023-02-25T21:36:09.043Z,46.93
2023-02-25T21:38:36.871Z,47.11
2023-02-25T21:41:14.286Z,47.03
2023-02-25T21:43:41.967Z,47.47
2023-02-25T21:46:11.765Z,46.18
2023-02-25T21:48:39.753Z,45.67
2023-02-25T21:51:07.720Z,46.41
2023-02-25T21:53:34.243Z,45.92
2023-02-25T21:56:17.359Z,45.14
2023-02-25T21:58:44.674Z,45.91
2023-02-25T22:01:23.203Z,45.74
2023-02-25T22:03:49.873Z,46.02
2023-02-25T22:06:17.035Z,46.10
2023-02-25T22:08:45.634Z,46.19
2023-02-25T22:11:17.823Z,46.25
2023-02-25T22:13:45.052Z,46.67
2023-02-25T22:16:14.911Z,46.65
2023-02-25T22:18:42.224Z,46.68
2023-02-25T22:21:15.115Z,46.70
2023-02-25T22:23:43.516Z,46.42
2023-02-25T22:26:15.798Z,46.80
2023-02-25T22:28:43.402Z,46.91
2023-02-25T22:31:11.986Z,47.14
2023-02-25T22:33:39.038Z,47.49
2023-02-25T22:36:07.296Z,47.12
2023-02-25T22:38:37.473Z,47.20
2023-02-25T22:41:05.526Z,47.81
2023-02-25T22:43:33.456Z,47.68
2023-02-25T22:46:09.078Z,47.19
2023-02-25T22:48:36.946Z,47.72
2023-02-25T22:51:03.692Z,47.99
2023-02-25T22:53:30.528Z,47.82
2023-02-25T22:56:09.118Z,47.92
2023-02-25T22:58:38.694Z,47.68
2023-02-25T23:01:05.528Z,48.48
2023-02-25T23:03:32.039Z,48.03
2023-02-25T23:05:58.512Z,48.35
2023-02-25T23:08:25.120Z,48.67
2023-02-25T23:10:51.812Z,48.35
2023-02-25T23:13:20.030Z,48.20
2023-02-25T23:15:47.867Z,48.59
2023-02-25T23:18:15.763Z,49.06
2023-02-25T23:20:42.923Z,48.25
2023-02-25T23:23:09.640Z,48.43
2023-02-25T23:25:39.867Z,49.09
2023-02-25T23:28:08.769Z,48.90
2023-02-25T23:30:39.359Z,48.95
2023-02-25T23:33:06.328Z,48.76
2023-02-25T23:35:34.024Z,48.66
2023-02-25T23:38:00.842Z,48.99
2023-02-25T23:40:28.883Z,48.84
2023-02-25T23:42:56.280Z,48.60
2023-02-25T23:45:22.963Z,48.76
2023-02-25T23:47:49.899Z,49.38
2023-02-25T23:50:17.674Z,48.75
2023-02-25T23:52:46.522Z,49.05
2023-02-25T23:55:14.501Z,49.18
2023-02-25T23:57:41.050Z,49.30
